createdAt,value
2023-04-01T00:00:50.648Z,477.00
2023-04-01T00:01:50.621Z,477.00
2023-04-01T00:02:50.672Z,476.00
2023-04-01T00:03:50.799Z,476.00
2023-04-01T00:04:50.617Z,474.00
2023-04-01T00:05:50.607Z,473.00
2023-04-01T00:06:50.634Z,472.00
2023-04-01T00:07:50.576Z,472.00
2023-04-01T00:08:50.588Z,475.00
2023-04-01T00:09:50.570Z,477.00
2023-04-01T00:10:50.604Z,477.00
2023-04-01T00:11:50.567Z,478.00
2023-04-01T00:12:50.556Z,477.00
2023-04-01T00:13:50.543Z,476.00
2023-04-01T00:14:50.554Z,472.00
2023-04-01T00:15:50.612Z,469.00
2023-04-01T00:16:50.624Z,468.00
2023-04-01T00:17:50.574Z,466.00
2023-04-01T00:18:50.519Z,467.00
2023-04-01T00:19:50.506Z,468.00
2023-04-01T00:20:50.499Z,468.00
2023-04-01T00:21:50.511Z,467.00
2023-04-01T00:22:50.505Z,468.00
2023-04-01T00:23:50.498Z,468.00
2023-04-01T00:24:50.507Z,468.00
2023-04-01T00:25:50.543Z,471.00
2023-04-01T00:26:50.467Z,472.00
2023-04-01T00:27:50.489Z,472.00
2023-04-01T00:28:50.473Z,472.00
2023-04-01T00:29:50.488Z,472.00
2023-04-01T00:30:50.510Z,472.00
2023-04-01T00:31:50.619Z,472.00
2023-04-01T00:32:50.571Z,473.00
2023-04-01T00:33:50.611Z,472.00
2023-04-01T00:34:50.591Z,471.00
2023-04-01T00:35:50.607Z,473.00
2023-04-01T00:36:50.623Z,476.00
2023-04-01T00:37:50.624Z,475.00
2023-04-01T00:38:50.665Z,476.00
2023-04-01T00:39:50.661Z,474.00
2023-04-01T00:40:50.693Z,475.00
2023-04-01T00:41:50.694Z,474.00
2023-04-01T00:42:50.699Z,473.00
2023-04-01T00:43:50.742Z,475.00
2023-04-01T00:44:50.736Z,477.00
2023-04-01T00:45:50.760Z,477.00
2023-04-01T00:46:50.815Z,476.00
2023-04-01T00:47:50.803Z,477.00
2023-04-01T00:48:50.833Z,476.00
2023-04-01T00:49:50.842Z,475.00
2023-04-01T00:50:50.861Z,477.00
2023-04-01T00:51:50.878Z,476.00
2023-04-01T00:52:50.878Z,476.00
2023-04-01T00:53:50.890Z,476.00
2023-04-01T00:54:50.922Z,478.00
2023-04-01T00:55:50.972Z,479.00
2023-04-01T00:56:51.041Z,481.00
2023-04-01T00:57:51.015Z,481.00
2023-04-01T00:58:51.065Z,479.00
2023-04-01T00:59:51.065Z,476.00
2023-04-01T01:00:51.122Z,477.00
2023-04-01T01:01:51.161Z,480.00
2023-04-01T01:02:51.197Z,478.00
2023-04-01T01:03:51.148Z,476.00
2023-04-01T01:04:51.203Z,476.00
2023-04-01T01:05:51.370Z,473.00
2023-04-01T01:06:51.244Z,474.00
2023-04-01T01:07:51.266Z,472.00
2023-04-01T01:08:51.267Z,472.00
2023-04-01T01:09:51.287Z,473.00
2023-04-01T01:10:51.313Z,472.00
2023-04-01T01:11:51.327Z,472.00
2023-04-01T01:12:51.387Z,472.00
2023-04-01T01:13:51.337Z,473.00
2023-04-01T01:14:51.373Z,474.00
2023-04-01T01:15:51.372Z,476.00
2023-04-01T01:16:51.427Z,477.00
2023-04-01T01:17:51.472Z,475.00
2023-04-01T01:18:51.439Z,477.00
2023-04-01T01:19:51.453Z,474.00
2023-04-01T01:20:51.511Z,474.00
2023-04-01T01:21:51.468Z,474.00
2023-04-01T01:22:51.507Z,475.00
2023-04-01T01:23:51.541Z,474.00
2023-04-01T01:24:51.552Z,471.00
2023-04-01T01:25:51.568Z,471.00
2023-04-01T01:26:51.562Z,472.00
2023-04-01T01:27:51.595Z,470.00
2023-04-01T01:28:51.599Z,471.00
2023-04-01T01:29:51.616Z,473.00
2023-04-01T01:30:51.658Z,474.00
2023-04-01T01:31:51.677Z,473.00
2023-04-01T01:32:51.738Z,472.00
2023-04-01T01:33:51.710Z,471.00
2023-04-01T01:34:51.734Z,469.00
2023-04-01T01:35:51.740Z,469.00
2023-04-01T01:36:51.749Z,466.00
2023-04-01T01:37:51.761Z,466.00
2023-04-01T01:38:51.769Z,466.00
2023-04-01T01:39:51.785Z,467.00
2023-04-01T01:40:51.795Z,466.00
2023-04-01T01:41:51.848Z,466.00
2023-04-01T01:42:51.864Z,466.00
2023-04-01T01:43:51.896Z,466.00
2023-04-01T01:44:51.893Z,467.00
2023-04-01T01:45:52.037Z,469.00
2023-04-01T01:46:51.939Z,470.00
2023-04-01T01:47:52.068Z,471.00
2023-04-01T01:48:51.980Z,469.00
2023-04-01T01:49:52.013Z,471.00
2023-04-01T01:50:52.022Z,472.00
2023-04-01T01:51:52.031Z,471.00
2023-04-01T01:52:52.036Z,470.00
2023-04-01T01:53:52.058Z,471.00
2023-04-01T01:54:52.091Z,468.00
2023-04-01T01:55:52.105Z,466.00
2023-04-01T01:56:52.138Z,468.00
2023-04-01T01:57:52.137Z,464.00
2023-04-01T01:58:52.156Z,464.00
2023-04-01T01:59:52.176Z,466.00
2023-04-01T02:00:52.192Z,467.00
2023-04-01T02:01:52.323Z,468.00
2023-04-01T02:02:52.258Z,470.00
2023-04-01T02:03:52.264Z,473.00
2023-04-01T02:04:52.339Z,471.00
2023-04-01T02:05:52.309Z,471.00
2023-04-01T02:06:52.303Z,474.00
2023-04-01T02:07:52.332Z,473.00
2023-04-01T02:08:52.363Z,473.00
2023-04-01T02:09:52.387Z,472.00
2023-04-01T02:10:52.393Z,473.00
2023-04-01T02:11:52.434Z,473.00
2023-04-01T02:12:52.449Z,474.00
2023-04-01T02:13:52.457Z,475.00
2023-04-01T02:14:52.523Z,474.00
2023-04-01T02:15:52.583Z,475.00
2023-04-01T02:16:52.546Z,476.00
2023-04-01T02:17:52.573Z,476.00
2023-04-01T02:18:52.579Z,474.00
2023-04-01T02:19:52.622Z,473.00
2023-04-01T02:20:52.604Z,474.00
2023-04-01T02:21:52.686Z,475.00
2023-04-01T02:22:52.656Z,475.00
2023-04-01T02:23:52.672Z,475.00
2023-04-01T02:24:52.703Z,473.00
2023-04-01T02:25:52.714Z,473.00
2023-04-01T02:26:52.769Z,473.00
2023-04-01T02:27:52.741Z,473.00
2023-04-01T02:28:52.765Z,475.00
2023-04-01T02:29:52.786Z,474.00
2023-04-01T02:30:52.824Z,474.00
2023-04-01T02:31:52.948Z,476.00
2023-04-01T02:32:52.887Z,476.00
2023-04-01T02:33:52.869Z,477.00
2023-04-01T02:34:52.895Z,476.00
2023-04-01T02:35:52.996Z,476.00
2023-04-01T02:36:52.945Z,476.00
2023-04-01T02:37:52.959Z,476.00
2023-04-01T02:38:52.981Z,475.00
2023-04-01T02:39:52.985Z,476.00
2023-04-01T02:40:53.039Z,478.00
2023-04-01T02:41:53.022Z,478.00
2023-04-01T02:42:53.046Z,480.00
2023-04-01T02:43:53.069Z,481.00
2023-04-01T02:44:53.099Z,481.00
2023-04-01T02:45:53.138Z,479.00
2023-04-01T02:46:53.173Z,480.00
2023-04-01T02:47:53.207Z,479.00
2023-04-01T02:48:53.207Z,479.00
2023-04-01T02:49:53.260Z,481.00
2023-04-01T02:50:53.308Z,482.00
2023-04-01T02:51:53.285Z,483.00
2023-04-01T02:52:53.300Z,478.00
2023-04-01T02:53:53.336Z,476.00
2023-04-01T02:54:53.402Z,473.00
2023-04-01T02:55:53.407Z,476.00
2023-04-01T02:56:53.480Z,477.00
2023-04-01T02:57:53.441Z,477.00
2023-04-01T02:58:53.478Z,479.00
2023-04-01T02:59:53.496Z,477.00
2023-04-01T03:00:53.540Z,478.00
2023-04-01T03:01:53.548Z,477.00
2023-04-01T03:02:53.649Z,476.00
2023-04-01T03:03:53.585Z,476.00
2023-04-01T03:04:53.638Z,475.00
2023-04-01T03:05:53.644Z,474.00
2023-04-01T03:06:53.671Z,472.00
2023-04-01T03:07:53.676Z,472.00
2023-04-01T03:08:53.704Z,473.00
2023-04-01T03:09:53.740Z,472.00
2023-04-01T03:10:53.773Z,474.00
2023-04-01T03:11:53.780Z,478.00
2023-04-01T03:12:53.857Z,477.00
2023-04-01T03:13:53.853Z,477.00
2023-04-01T03:14:53.859Z,477.00
2023-04-01T03:15:53.909Z,478.00
2023-04-01T03:16:53.989Z,478.00
2023-04-01T03:17:53.982Z,478.00
2023-04-01T03:18:53.967Z,478.00
2023-04-01T03:19:53.992Z,477.00
2023-04-01T03:20:54.053Z,478.00
2023-04-01T03:21:54.061Z,479.00
2023-04-01T03:22:54.080Z,480.00
2023-04-01T03:23:54.109Z,481.00
2023-04-01T03:24:54.122Z,480.00
2023-04-01T03:25:54.146Z,482.00
2023-04-01T03:26:54.180Z,484.00
2023-04-01T03:27:54.212Z,482.00
2023-04-01T03:28:54.265Z,483.00
2023-04-01T03:29:54.292Z,480.00
2023-04-01T03:30:54.345Z,479.00
2023-04-01T03:31:54.320Z,478.00
2023-04-01T03:32:54.408Z,477.00
2023-04-01T03:33:54.389Z,474.00
2023-04-01T03:34:54.425Z,474.00
2023-04-01T03:35:54.489Z,475.00
2023-04-01T03:36:54.479Z,475.00
2023-04-01T03:37:54.500Z,477.00
2023-04-01T03:38:54.545Z,478.00
2023-04-01T03:39:54.568Z,479.00
2023-04-01T03:40:54.608Z,479.00
2023-04-01T03:41:54.639Z,479.00
2023-04-01T03:42:54.689Z,479.00
2023-04-01T03:43:54.696Z,479.00
2023-04-01T03:44:54.721Z,478.00
2023-04-01T03:45:54.762Z,476.00
2023-04-01T03:46:54.791Z,477.00
2023-04-01T03:47:54.872Z,476.00
2023-04-01T03:48:54.835Z,476.00
2023-04-01T03:49:54.876Z,475.00
2023-04-01T03:50:54.903Z,475.00
2023-04-01T03:51:54.928Z,477.00
2023-04-01T03:52:54.944Z,479.00
2023-04-01T03:53:55.002Z,480.00
2023-04-01T03:54:55.004Z,482.00
2023-04-01T03:55:55.032Z,480.00
2023-04-01T03:56:55.084Z,482.00
2023-04-01T03:57:55.101Z,483.00
2023-04-01T03:58:55.135Z,482.00
2023-04-01T03:59:55.150Z,483.00
2023-04-01T04:00:55.179Z,484.00
2023-04-01T04:01:55.211Z,483.00
2023-04-01T04:02:55.325Z,484.00
2023-04-01T04:03:55.419Z,483.00
2023-04-01T04:04:55.323Z,482.00
2023-04-01T04:05:55.361Z,483.00
2023-04-01T04:06:55.396Z,486.00
2023-04-01T04:07:55.409Z,487.00
2023-04-01T04:08:55.474Z,486.00
2023-04-01T04:09:55.486Z,484.00
2023-04-01T04:10:55.525Z,484.00
2023-04-01T04:11:55.546Z,487.00
2023-04-01T04:12:55.600Z,484.00
2023-04-01T04:13:57.173Z,484.00
2023-04-01T04:14:55.656Z,483.00
2023-04-01T04:15:55.676Z,482.00
2023-04-01T04:16:55.689Z,482.00
2023-04-01T04:17:55.773Z,484.00
2023-04-01T04:18:55.755Z,487.00
2023-04-01T04:19:55.793Z,486.00
2023-04-01T04:20:55.827Z,484.00
2023-04-01T04:21:55.836Z,485.00
2023-04-01T04:22:55.876Z,486.00
2023-04-01T04:23:55.901Z,488.00
2023-04-01T04:24:55.996Z,489.00
2023-04-01T04:25:55.966Z,489.00
2023-04-01T04:26:56.013Z,485.00
2023-04-01T04:27:56.034Z,486.00
2023-04-01T04:28:56.070Z,486.00
2023-04-01T04:29:56.107Z,484.00
2023-04-01T04:30:56.119Z,483.00
2023-04-01T04:31:56.207Z,485.00
2023-04-01T04:32:56.242Z,483.00
2023-04-01T04:33:56.229Z,483.00
2023-04-01T04:34:56.255Z,484.00
2023-04-01T04:35:56.328Z,483.00
2023-04-01T04:36:56.307Z,481.00
2023-04-01T04:38:58.869Z,497.00
2023-04-01T04:39:58.862Z,493.00
2023-04-01T04:40:58.849Z,493.00
2023-04-01T04:41:58.864Z,492.00
2023-04-01T04:42:58.829Z,490.00
2023-04-01T04:43:58.846Z,492.00
2023-04-01T04:44:58.825Z,493.00
2023-04-01T04:45:58.800Z,494.00
2023-04-01T04:46:58.855Z,493.00
2023-04-01T04:47:58.851Z,490.00
2023-04-01T04:48:58.796Z,489.00
2023-04-01T04:49:58.797Z,489.00
2023-04-01T04:50:58.778Z,488.00
2023-04-01T04:51:58.770Z,489.00
2023-04-01T04:52:58.765Z,490.00
2023-04-01T04:53:58.767Z,490.00
2023-04-01T04:54:58.775Z,489.00
2023-04-01T04:55:58.743Z,489.00
2023-04-01T04:56:58.809Z,488.00
2023-04-01T04:57:58.809Z,489.00
2023-04-01T04:58:58.750Z,489.00
2023-04-01T04:59:58.740Z,487.00
2023-04-01T05:00:58.763Z,485.00
2023-04-01T05:01:58.725Z,485.00
2023-04-01T05:02:58.764Z,485.00
2023-04-01T05:03:58.698Z,487.00
2023-04-01T05:04:58.706Z,487.00
2023-04-01T05:05:58.674Z,488.00
2023-04-01T05:06:58.688Z,489.00
2023-04-01T05:07:58.660Z,488.00
2023-04-01T05:08:58.663Z,488.00
2023-04-01T05:09:58.655Z,487.00
2023-04-01T05:10:58.634Z,488.00
2023-04-01T05:11:58.633Z,486.00
2023-04-01T05:12:58.636Z,484.00
2023-04-01T05:13:58.629Z,484.00
2023-04-01T05:14:58.623Z,485.00
2023-04-01T05:15:58.611Z,486.00
2023-04-01T05:16:58.641Z,486.00
2023-04-01T05:17:58.683Z,482.00
2023-04-01T05:18:58.593Z,483.00
2023-04-01T05:19:58.608Z,485.00
2023-04-01T05:20:58.577Z,487.00
2023-04-01T05:21:58.560Z,487.00
2023-04-01T05:22:58.596Z,487.00
2023-04-01T05:23:58.551Z,487.00
2023-04-01T05:24:58.561Z,488.00
2023-04-01T05:25:58.573Z,489.00
2023-04-01T05:26:58.568Z,489.00
2023-04-01T05:27:58.523Z,488.00
2023-04-01T05:28:58.534Z,486.00
2023-04-01T05:29:58.509Z,486.00
2023-04-01T05:30:58.528Z,487.00
2023-04-01T05:31:58.503Z,487.00
2023-04-01T05:32:58.562Z,489.00
2023-04-01T05:33:58.498Z,489.00
2023-04-01T05:34:58.493Z,490.00
2023-04-01T05:35:58.490Z,492.00
2023-04-01T05:36:58.483Z,493.00
2023-04-01T05:37:58.456Z,493.00
2023-04-01T05:38:58.445Z,496.00
2023-04-01T05:39:58.446Z,495.00
2023-04-01T05:40:58.453Z,496.00
2023-04-01T05:41:58.439Z,494.00
2023-04-01T05:42:58.438Z,494.00
2023-04-01T05:43:58.408Z,492.00
2023-04-01T05:44:58.425Z,493.00
2023-04-01T05:45:58.581Z,492.00
2023-04-01T05:46:58.411Z,492.00
2023-04-01T05:47:58.436Z,493.00
2023-04-01T05:48:58.380Z,493.00
2023-04-01T05:49:58.373Z,492.00
2023-04-01T05:50:58.400Z,492.00
2023-04-01T05:51:58.375Z,491.00
2023-04-01T05:52:58.447Z,491.00
2023-04-01T05:53:58.344Z,492.00
2023-04-01T05:54:58.345Z,489.00
2023-04-01T05:55:58.355Z,492.00
2023-04-01T05:56:58.380Z,495.00
2023-04-01T05:57:58.327Z,495.00
2023-04-01T05:58:58.306Z,495.00
2023-04-01T05:59:58.304Z,494.00
2023-04-01T06:01:08.600Z,494.00
2023-04-01T06:02:00.007Z,493.00
2023-04-01T06:02:58.323Z,495.00
2023-04-01T06:03:58.478Z,495.00
2023-04-01T06:04:58.352Z,494.00
2023-04-01T06:05:58.276Z,495.00
2023-04-01T06:06:58.269Z,496.00
2023-04-01T06:07:58.260Z,492.00
2023-04-01T06:08:58.257Z,490.00
2023-04-01T06:09:58.259Z,489.00
2023-04-01T06:10:58.234Z,489.00
2023-04-01T06:11:58.225Z,489.00
2023-04-01T06:12:58.255Z,487.00
2023-04-01T06:13:58.213Z,489.00
2023-04-01T06:14:58.227Z,488.00
2023-04-01T06:15:58.224Z,488.00
2023-04-01T06:16:58.198Z,487.00
2023-04-01T06:17:58.272Z,487.00
2023-04-01T06:18:58.184Z,486.00
2023-04-01T06:19:58.195Z,486.00
2023-04-01T06:20:58.177Z,489.00
2023-04-01T06:21:58.179Z,489.00
2023-04-01T06:22:58.157Z,491.00
2023-04-01T06:23:58.140Z,490.00
2023-04-01T06:24:58.152Z,488.00
2023-04-01T06:25:58.139Z,489.00
2023-04-01T06:26:58.128Z,489.00
2023-04-01T06:27:58.136Z,490.00
2023-04-01T06:28:58.139Z,490.00
2023-04-01T06:29:58.124Z,491.00
2023-04-01T06:30:58.126Z,490.00
2023-04-01T06:31:58.144Z,490.00
2023-04-01T06:32:58.204Z,489.00
2023-04-01T06:33:58.077Z,489.00
2023-04-01T06:34:58.095Z,491.00
2023-04-01T06:35:58.096Z,492.00
2023-04-01T06:36:58.080Z,493.00
2023-04-01T06:37:58.103Z,493.00
2023-04-01T06:38:58.091Z,495.00
2023-04-01T06:39:58.189Z,496.00
2023-04-01T06:40:58.200Z,498.00
2023-04-01T06:41:58.211Z,497.00
2023-04-01T06:42:58.248Z,496.00
2023-04-01T06:43:58.255Z,497.00
2023-04-01T06:44:58.287Z,500.00
2023-04-01T06:45:58.316Z,498.00
2023-04-01T06:46:58.409Z,497.00
2023-04-01T06:47:58.529Z,496.00
2023-04-01T06:48:58.495Z,494.00
2023-04-01T06:49:58.517Z,496.00
2023-04-01T06:50:58.552Z,494.00
2023-04-01T06:51:58.584Z,496.00
2023-04-01T06:52:58.703Z,494.00
2023-04-01T06:53:58.731Z,494.00
2023-04-01T06:54:58.755Z,494.00
2023-04-01T06:55:58.793Z,494.00
2023-04-01T06:56:58.948Z,495.00
2023-04-01T06:57:58.880Z,494.00
2023-04-01T06:58:58.906Z,495.00
2023-04-01T06:59:58.938Z,495.00
2023-04-01T07:00:59.003Z,495.00
2023-04-01T07:01:59.034Z,493.00
2023-04-01T07:02:59.211Z,493.00
2023-04-01T07:03:59.270Z,491.00
2023-04-01T07:04:59.267Z,492.00
2023-04-01T07:05:59.320Z,491.00
2023-04-01T07:06:59.383Z,490.00
2023-04-01T07:07:59.477Z,490.00
2023-04-01T07:08:59.500Z,492.00
2023-04-01T07:09:59.564Z,490.00
2023-04-01T07:10:59.662Z,490.00
2023-04-01T07:11:59.677Z,491.00
2023-04-01T07:12:59.718Z,492.00
2023-04-01T07:13:59.827Z,492.00
2023-04-01T07:14:59.840Z,494.00
2023-04-01T07:15:59.867Z,494.00
2023-04-01T07:16:59.931Z,493.00
2023-04-01T07:18:00.209Z,491.00
2023-04-01T07:19:00.032Z,492.00
2023-04-01T07:20:00.082Z,490.00
2023-04-01T07:21:00.104Z,489.00
2023-04-01T07:22:00.146Z,485.00
2023-04-01T07:23:00.173Z,483.00
2023-04-01T07:24:00.225Z,486.00
2023-04-01T07:25:00.272Z,485.00
2023-04-01T07:26:00.322Z,484.00
2023-04-01T07:27:00.343Z,483.00
2023-04-01T07:28:00.393Z,484.00
2023-04-01T07:29:00.463Z,486.00
2023-04-01T07:30:00.492Z,487.00
2023-04-01T07:31:00.593Z,487.00
2023-04-01T07:32:00.562Z,484.00
2023-04-01T07:33:00.675Z,483.00
2023-04-01T07:34:00.631Z,485.00
2023-04-01T07:35:00.686Z,484.00
2023-04-01T07:36:00.750Z,486.00
2023-04-01T07:37:00.755Z,484.00
2023-04-01T07:38:00.795Z,482.00
2023-04-01T07:39:00.882Z,481.00
2023-04-01T07:40:00.875Z,483.00
2023-04-01T07:41:00.922Z,485.00
2023-04-01T07:42:00.971Z,487.00
2023-04-01T07:43:01.003Z,488.00
2023-04-01T07:44:01.033Z,489.00
2023-04-01T07:45:01.105Z,487.00
2023-04-01T07:46:01.139Z,485.00
2023-04-01T07:47:01.171Z,484.00
2023-04-01T07:48:01.244Z,487.00
2023-04-01T07:49:01.274Z,489.00
2023-04-01T07:50:01.318Z,489.00
2023-04-01T07:51:01.343Z,489.00
2023-04-01T07:52:01.362Z,491.00
2023-04-01T07:53:01.409Z,489.00
2023-04-01T07:54:01.439Z,489.00
2023-04-01T07:55:01.466Z,491.00
2023-04-01T07:56:01.504Z,491.00
2023-04-01T07:57:01.527Z,494.00
2023-04-01T07:58:01.539Z,490.00
2023-04-01T07:59:01.548Z,491.00
2023-04-01T08:00:01.551Z,489.00
2023-04-01T08:01:01.576Z,488.00
2023-04-01T08:02:01.560Z,487.00
2023-04-01T08:03:01.663Z,484.00
2023-04-01T08:04:01.690Z,485.00
2023-04-01T08:05:01.689Z,487.00
2023-04-01T08:06:01.607Z,486.00
2023-04-01T08:07:01.599Z,486.00
2023-04-01T08:08:01.592Z,484.00
2023-04-01T08:09:01.632Z,481.00
2023-04-01T08:10:01.703Z,478.00
2023-04-01T08:11:01.710Z,481.00
2023-04-01T08:12:01.751Z,482.00
2023-04-01T08:13:01.760Z,484.00
2023-04-01T08:14:01.779Z,487.00
2023-04-01T08:15:01.797Z,489.00
2023-04-01T08:16:01.850Z,490.00
2023-04-01T08:17:01.880Z,488.00
2023-04-01T08:18:01.966Z,487.00
2023-04-01T08:19:01.931Z,485.00
2023-04-01T08:20:01.998Z,484.00
2023-04-01T08:21:02.055Z,482.00
2023-04-01T08:22:02.121Z,484.00
2023-04-01T08:23:02.223Z,485.00
2023-04-01T08:24:02.224Z,486.00
2023-04-01T08:25:02.258Z,484.00
2023-04-01T08:26:02.365Z,485.00
2023-04-01T08:27:02.368Z,485.00
2023-04-01T08:28:02.436Z,487.00
2023-04-01T08:29:02.459Z,487.00
2023-04-01T08:30:02.516Z,488.00
2023-04-01T08:31:02.565Z,485.00
2023-04-01T08:32:02.771Z,486.00
2023-04-01T08:33:02.698Z,484.00
2023-04-01T08:34:02.704Z,484.00
2023-04-01T08:35:02.743Z,484.00
2023-04-01T08:36:02.802Z,482.00
2023-04-01T08:37:02.789Z,482.00
2023-04-01T08:38:02.848Z,483.00
2023-04-01T08:39:02.863Z,481.00
2023-04-01T08:40:02.909Z,483.00
2023-04-01T08:41:02.963Z,483.00
2023-04-01T08:42:02.979Z,483.00
2023-04-01T08:43:03.015Z,482.00
2023-04-01T08:44:03.039Z,483.00
2023-04-01T08:45:03.074Z,483.00
2023-04-01T08:46:03.142Z,483.00
2023-04-01T08:47:03.149Z,483.00
2023-04-01T08:48:03.177Z,482.00
2023-04-01T08:49:03.220Z,479.00
2023-04-01T08:50:03.221Z,478.00
2023-04-01T08:51:05.255Z,477.00
2023-04-01T08:52:03.245Z,477.00
2023-04-01T08:53:03.231Z,477.00
2023-04-01T08:54:03.268Z,476.00
2023-04-01T08:55:03.245Z,476.00
2023-04-01T08:56:03.243Z,475.00
2023-04-01T08:57:03.275Z,475.00
2023-04-01T08:58:03.202Z,476.00
2023-04-01T08:59:03.182Z,476.00
2023-04-01T09:00:03.193Z,472.00
2023-04-01T09:01:03.183Z,471.00
2023-04-01T09:02:03.240Z,472.00
2023-04-01T09:03:03.393Z,474.00
2023-04-01T09:04:03.225Z,473.00
2023-04-01T09:05:03.157Z,472.00
2023-04-01T09:06:03.133Z,471.00
2023-04-01T09:07:03.151Z,471.00
2023-04-01T09:08:03.179Z,472.00
2023-04-01T09:09:03.132Z,473.00
2023-04-01T09:10:03.115Z,471.00
2023-04-01T09:11:03.100Z,471.00
2023-04-01T09:12:03.147Z,475.00
2023-04-01T09:13:03.095Z,473.00
2023-04-01T09:14:03.075Z,476.00
2023-04-01T09:15:03.077Z,477.00
2023-04-01T09:16:03.146Z,476.00
2023-04-01T09:17:03.052Z,473.00
2023-04-01T09:18:03.097Z,472.00
2023-04-01T09:19:03.060Z,473.00
2023-04-01T09:20:03.054Z,471.00
2023-04-01T09:21:03.044Z,468.00
2023-04-01T09:22:03.033Z,470.00
2023-04-01T09:23:03.039Z,469.00
2023-04-01T09:24:03.033Z,470.00
2023-04-01T09:25:03.031Z,470.00
2023-04-01T09:26:03.011Z,469.00
2023-04-01T09:27:03.014Z,469.00
2023-04-01T09:28:03.020Z,468.00
2023-04-01T09:29:02.976Z,470.00
2023-04-01T09:30:02.994Z,471.00
2023-04-01T09:31:03.000Z,472.00
2023-04-01T09:32:02.962Z,473.00
2023-04-01T09:33:03.015Z,477.00
2023-04-01T09:34:02.971Z,476.00
2023-04-01T09:35:02.969Z,476.00
2023-04-01T09:36:02.975Z,473.00
2023-04-01T09:37:02.942Z,471.00
2023-04-01T09:38:02.953Z,471.00
2023-04-01T09:39:02.916Z,474.00
2023-04-01T09:40:02.913Z,473.00
2023-04-01T09:41:02.899Z,474.00
2023-04-01T09:42:02.917Z,474.00
2023-04-01T09:43:02.895Z,474.00
2023-04-01T09:44:02.904Z,473.00
2023-04-01T09:45:02.902Z,474.00
2023-04-01T09:46:02.936Z,474.00
2023-04-01T09:47:02.891Z,476.00
2023-04-01T09:48:02.911Z,476.00
2023-04-01T09:49:02.958Z,477.00
2023-04-01T09:50:02.999Z,473.00
2023-04-01T09:51:03.046Z,473.00
2023-04-01T09:52:03.068Z,474.00
2023-04-01T09:53:03.157Z,474.00
2023-04-01T09:54:03.208Z,474.00
2023-04-01T09:55:03.275Z,475.00
2023-04-01T09:56:03.294Z,474.00
2023-04-01T09:57:03.380Z,473.00
2023-04-01T09:58:03.415Z,472.00
2023-04-01T09:59:03.486Z,471.00
2023-04-01T10:00:03.561Z,471.00
2023-04-01T10:01:03.605Z,468.00
2023-04-01T10:02:03.798Z,469.00
2023-04-01T10:03:03.790Z,469.00
2023-04-01T10:04:03.820Z,469.00
2023-04-01T10:05:03.819Z,466.00
2023-04-01T10:06:03.929Z,465.00
2023-04-01T10:07:03.955Z,466.00
2023-04-01T10:08:03.988Z,466.00
2023-04-01T10:09:04.081Z,467.00
2023-04-01T10:10:04.129Z,468.00
2023-04-01T10:11:04.180Z,469.00
2023-04-01T10:12:04.246Z,470.00
2023-04-01T10:13:04.296Z,471.00
2023-04-01T10:14:04.347Z,471.00
2023-04-01T10:15:04.392Z,469.00
2023-04-01T10:16:04.459Z,466.00
2023-04-01T10:17:04.513Z,467.00
2023-04-01T10:18:04.608Z,467.00
2023-04-01T10:19:04.628Z,468.00
2023-04-01T10:20:04.691Z,467.00
2023-04-01T10:21:04.740Z,468.00
2023-04-01T10:22:04.791Z,470.00
2023-04-01T10:23:04.830Z,470.00
2023-04-01T10:24:04.896Z,468.00
2023-04-01T10:25:06.282Z,468.00
2023-04-01T10:26:05.016Z,469.00
2023-04-01T10:27:05.054Z,469.00
2023-04-01T10:28:05.150Z,467.00
2023-04-01T10:29:05.168Z,467.00
2023-04-01T10:30:05.248Z,467.00
2023-04-01T10:31:05.270Z,465.00
2023-04-01T10:32:05.355Z,466.00
2023-04-01T10:33:05.393Z,466.00
2023-04-01T10:34:05.395Z,466.00
2023-04-01T10:35:05.479Z,467.00
2023-04-01T10:36:05.540Z,466.00
2023-04-01T10:37:05.538Z,469.00
2023-04-01T10:38:05.580Z,470.00
2023-04-01T10:39:05.670Z,470.00
2023-04-01T10:40:05.711Z,470.00
2023-04-01T10:41:05.744Z,468.00
2023-04-01T10:42:05.780Z,467.00
2023-04-01T10:43:05.850Z,468.00
2023-04-01T10:44:05.853Z,468.00
2023-04-01T10:45:05.889Z,465.00
2023-04-01T10:46:05.923Z,464.00
2023-04-01T10:47:05.955Z,463.00
2023-04-01T10:48:06.041Z,465.00
2023-04-01T10:49:06.017Z,465.00
2023-04-01T10:50:06.084Z,463.00
2023-04-01T10:51:06.135Z,460.00
2023-04-01T10:52:06.167Z,461.00
2023-04-01T10:53:07.346Z,459.00
2023-04-01T10:54:06.297Z,458.00
2023-04-01T10:55:06.296Z,458.00
2023-04-01T10:56:06.345Z,457.00
2023-04-01T10:57:06.371Z,459.00
2023-04-01T10:58:06.425Z,461.00
2023-04-01T10:59:06.451Z,460.00
2023-04-01T11:00:06.501Z,460.00
2023-04-01T11:01:06.597Z,460.00
2023-04-01T11:02:11.463Z,457.00
2023-04-01T11:03:07.703Z,457.00
2023-04-01T11:04:06.585Z,455.00
2023-04-01T11:05:06.567Z,456.00
2023-04-01T11:06:06.552Z,456.00
2023-04-01T11:07:06.547Z,458.00
2023-04-01T11:08:07.412Z,457.00
2023-04-01T11:09:06.521Z,457.00
2023-04-01T11:10:06.509Z,455.00
2023-04-01T11:11:06.516Z,456.00
2023-04-01T11:12:06.506Z,458.00
2023-04-01T11:13:06.512Z,460.00
2023-04-01T11:14:06.481Z,462.00
2023-04-01T11:15:06.462Z,462.00
2023-04-01T11:16:06.527Z,463.00
2023-04-01T11:17:06.480Z,463.00
2023-04-01T11:18:06.515Z,462.00
2023-04-01T11:19:06.512Z,463.00
2023-04-01T11:20:06.544Z,464.00
2023-04-01T11:21:06.572Z,464.00
2023-04-01T11:22:06.591Z,462.00
2023-04-01T11:23:06.649Z,463.00
2023-04-01T11:24:06.704Z,462.00
2023-04-01T11:25:06.729Z,461.00
2023-04-01T11:26:06.776Z,461.00
2023-04-01T11:27:06.859Z,462.00
2023-04-01T11:28:06.861Z,461.00
2023-04-01T11:29:06.902Z,462.00
2023-04-01T11:30:06.961Z,466.00
2023-04-01T11:31:07.027Z,467.00
2023-04-01T11:32:07.065Z,470.00
2023-04-01T11:33:07.156Z,468.00
2023-04-01T11:34:07.147Z,468.00
2023-04-01T11:35:07.187Z,467.00
2023-04-01T11:36:07.236Z,465.00
2023-04-01T11:37:07.270Z,462.00
2023-04-01T11:38:07.289Z,460.00
2023-04-01T11:39:07.362Z,458.00
2023-04-01T11:40:07.386Z,461.00
2023-04-01T11:41:07.435Z,460.00
2023-04-01T11:42:07.475Z,459.00
2023-04-01T11:43:07.513Z,457.00
2023-04-01T11:44:07.566Z,458.00
2023-04-01T11:45:07.621Z,459.00
2023-04-01T11:46:07.721Z,462.00
2023-04-01T11:47:07.717Z,466.00
2023-04-01T11:48:07.908Z,469.00
2023-04-01T11:49:07.797Z,468.00
2023-04-01T11:50:07.854Z,466.00
2023-04-01T11:51:08.227Z,467.00
2023-04-01T11:52:07.930Z,465.00
2023-04-01T11:53:08.006Z,465.00
2023-04-01T11:54:08.030Z,466.00
2023-04-01T11:55:08.112Z,466.00
2023-04-01T11:56:08.146Z,465.00
2023-04-01T11:57:08.207Z,465.00
2023-04-01T11:58:08.244Z,463.00
2023-04-01T11:59:08.258Z,461.00
2023-04-01T12:00:08.308Z,460.00
2023-04-01T12:01:08.361Z,457.00
2023-04-01T12:02:08.446Z,457.00
2023-04-01T12:03:08.495Z,458.00
2023-04-01T12:04:08.668Z,459.00
2023-04-01T12:05:08.555Z,460.00
2023-04-01T12:06:08.621Z,460.00
2023-04-01T12:07:08.676Z,462.00
2023-04-01T12:08:08.727Z,461.00
2023-04-01T12:09:08.780Z,461.00
2023-04-01T12:10:08.835Z,462.00
2023-04-01T12:11:08.905Z,461.00
2023-04-01T12:12:08.960Z,460.00
2023-04-01T12:13:09.014Z,461.00
2023-04-01T12:14:09.087Z,460.00
2023-04-01T12:15:09.109Z,458.00
2023-04-01T12:16:09.211Z,460.00
2023-04-01T12:17:09.220Z,458.00
2023-04-01T12:18:09.329Z,459.00
2023-04-01T12:19:09.378Z,460.00
2023-04-01T12:20:09.404Z,458.00
2023-04-01T12:21:09.439Z,455.00
2023-04-01T12:22:09.501Z,454.00
2023-04-01T12:23:09.535Z,453.00
2023-04-01T12:24:09.641Z,455.00
2023-04-01T12:25:09.662Z,455.00
2023-04-01T12:26:09.713Z,457.00
2023-04-01T12:27:09.778Z,455.00
2023-04-01T12:28:09.814Z,455.00
2023-04-01T12:29:09.880Z,456.00
2023-04-01T12:30:09.995Z,456.00